sensor_id;sensor_type;location;lat;lon;timestamp;temperature;humidity
19330;DHT22;9799;48.214;16.388;2022-10-18T00:03:07;16.50;99.90
19330;DHT22;9799;48.214;16.388;2022-10-18T00:06:28;16.50;99.90
19330;DHT22;9799;48.214;16.388;2022-10-18T00:09:49;16.50;99.90
19330;DHT22;9799;48.214;16.388;2022-10-18T00:13:12;16.50;99.90
19330;DHT22;9799;48.214;16.388;2022-10-18T00:16:33;16.50;99.90
19330;DHT22;9799;48.214;16.388;2022-10-18T00:19:54;16.40;99.90
19330;DHT22;9799;48.214;16.388;2022-10-18T00:23:15;16.40;99.90
19330;DHT22;9799;48.214;16.388;2022-10-18T00:26:36;16.40;99.90
19330;DHT22;9799;48.214;16.388;2022-10-18T00:29:59;16.30;99.90
19330;DHT22;9799;48.214;16.388;2022-10-18T00:33:20;16.10;99.90
19330;DHT22;9799;48.214;16.388;2022-10-18T00:36:42;16.10;99.90
19330;DHT22;9799;48.214;16.388;2022-10-18T00:40:05;16.00;99.90
19330;DHT22;9799;48.214;16.388;2022-10-18T00:43:26;15.90;99.90
19330;DHT22;9799;48.214;16.388;2022-10-18T00:46:49;16.00;99.90
19330;DHT22;9799;48.214;16.388;2022-10-18T00:50:11;16.00;99.90
19330;DHT22;9799;48.214;16.388;2022-10-18T00:53:33;16.00;99.90
19330;DHT22;9799;48.214;16.388;2022-10-18T00:56:54;16.00;99.90
19330;DHT22;9799;48.214;16.388;2022-10-18T01:00:16;16.00;99.90
19330;DHT22;9799;48.214;16.388;2022-10-18T01:03:39;16.00;99.90
19330;DHT22;9799;48.214;16.388;2022-10-18T01:07:09;16.00;99.90
19330;DHT22;9799;48.214;16.388;2022-10-18T01:10:38;15.90;99.90
19330;DHT22;9799;48.214;16.388;2022-10-18T01:14:12;15.90;99.90
19330;DHT22;9799;48.214;16.388;2022-10-18T01:17:44;15.90;99.90
19330;DHT22;9799;48.214;16.388;2022-10-18T01:21:19;15.80;99.90
19330;DHT22;9799;48.214;16.388;2022-10-18T01:24:58;15.70;99.90
19330;DHT22;9799;48.214;16.388;2022-10-18T01:28:35;15.80;99.90
19330;DHT22;9799;48.214;16.388;2022-10-18T01:32:01;15.60;99.90
19330;DHT22;9799;48.214;16.388;2022-10-18T01:35:26;15.60;99.90
19330;DHT22;9799;48.214;16.388;2022-10-18T01:38:52;15.60;99.90
19330;DHT22;9799;48.214;16.388;2022-10-18T01:42:17;15.60;99.90
19330;DHT22;9799;48.214;16.388;2022-10-18T01:45:40;15.60;99.90
19330;DHT22;9799;48.214;16.388;2022-10-18T01:49:03;15.50;99.90
19330;DHT22;9799;48.214;16.388;2022-10-18T01:52:24;15.50;99.90
19330;DHT22;9799;48.214;16.388;2022-10-18T01:56:04;15.40;99.90
19330;DHT22;9799;48.214;16.388;2022-10-18T01:59:39;15.20;99.90
19330;DHT22;9799;48.214;16.388;2022-10-18T02:03:06;15.10;99.90
19330;DHT22;9799;48.214;16.388;2022-10-18T02:06:38;15.00;99.90
19330;DHT22;9799;48.214;16.388;2022-10-18T02:10:07;15.10;99.90
19330;DHT22;9799;48.214;16.388;2022-10-18T02:13:32;15.20;99.90
19330;DHT22;9799;48.214;16.388;2022-10-18T02:16:56;15.10;99.90
19330;DHT22;9799;48.214;16.388;2022-10-18T02:20:20;15.20;99.90
19330;DHT22;9799;48.214;16.388;2022-10-18T02:23:44;15.00;99.90
19330;DHT22;9799;48.214;16.388;2022-10-18T02:27:05;14.80;99.90
19330;DHT22;9799;48.214;16.388;2022-10-18T02:30:31;14.70;99.90
19330;DHT22;9799;48.214;16.388;2022-10-18T02:33:55;14.60;99.90
19330;DHT22;9799;48.214;16.388;2022-10-18T02:37:17;14.70;99.90
19330;DHT22;9799;48.214;16.388;2022-10-18T02:40:40;14.80;99.90
19330;DHT22;9799;48.214;16.388;2022-10-18T02:44:02;14.80;99.90
19330;DHT22;9799;48.214;16.388;2022-10-18T02:47:23;14.90;99.90
19330;DHT22;9799;48.214;16.388;2022-10-18T02:50:44;14.80;99.90
19330;DHT22;9799;48.214;16.388;2022-10-18T02:54:05;14.90;99.90
19330;DHT22;9799;48.214;16.388;2022-10-18T02:57:28;14.80;99.90
19330;DHT22;9799;48.214;16.388;2022-10-18T03:00:49;14.80;99.90
19330;DHT22;9799;48.214;16.388;2022-10-18T03:04:11;14.80;99.90
19330;DHT22;9799;48.214;16.388;2022-10-18T03:07:32;14.70;99.90
19330;DHT22;9799;48.214;16.388;2022-10-18T03:10:53;14.60;99.90
19330;DHT22;9799;48.214;16.388;2022-10-18T03:14:15;14.50;99.90
19330;DHT22;9799;48.214;16.388;2022-10-18T03:17:37;14.60;99.90
19330;DHT22;9799;48.214;16.388;2022-10-18T03:20:58;14.40;99.90
19330;DHT22;9799;48.214;16.388;2022-10-18T03:24:19;14.40;99.90
19330;DHT22;9799;48.214;16.388;2022-10-18T03:27:40;14.50;99.90
19330;DHT22;9799;48.214;16.388;2022-10-18T03:31:03;14.60;99.90
19330;DHT22;9799;48.214;16.388;2022-10-18T03:34:24;14.60;99.90
19330;DHT22;9799;48.214;16.388;2022-10-18T03:37:46;14.60;99.90
19330;DHT22;9799;48.214;16.388;2022-10-18T03:41:07;14.60;99.90
19330;DHT22;9799;48.214;16.388;2022-10-18T03:44:28;14.50;99.90
19330;DHT22;9799;48.214;16.388;2022-10-18T03:47:50;14.50;99.90
19330;DHT22;9799;48.214;16.388;2022-10-18T03:51:12;14.50;99.90
19330;DHT22;9799;48.214;16.388;2022-10-18T03:54:33;14.50;99.90
19330;DHT22;9799;48.214;16.388;2022-10-18T03:57:54;14.50;99.90
19330;DHT22;9799;48.214;16.388;2022-10-18T04:01:15;14.50;99.90
19330;DHT22;9799;48.214;16.388;2022-10-18T04:04:38;14.40;99.90
19330;DHT22;9799;48.214;16.388;2022-10-18T04:07:59;14.40;99.90
19330;DHT22;9799;48.214;16.388;2022-10-18T04:11:20;14.30;99.90
19330;DHT22;9799;48.214;16.388;2022-10-18T04:14:41;14.30;99.90
19330;DHT22;9799;48.214;16.388;2022-10-18T04:18:02;14.30;99.90
19330;DHT22;9799;48.214;16.388;2022-10-18T04:21:25;14.10;99.90
19330;DHT22;9799;48.214;16.388;2022-10-18T04:24:46;14.10;99.90
19330;DHT22;9799;48.214;16.388;2022-10-18T04:28:07;14.10;99.90
19330;DHT22;9799;48.214;16.388;2022-10-18T04:31:28;14.00;99.90
19330;DHT22;9799;48.214;16.388;2022-10-18T04:34:49;14.00;99.90
19330;DHT22;9799;48.214;16.388;2022-10-18T04:38:12;14.10;99.90
19330;DHT22;9799;48.214;16.388;2022-10-18T04:41:33;14.10;99.90
19330;DHT22;9799;48.214;16.388;2022-10-18T04:44:55;14.20;99.90
19330;DHT22;9799;48.214;16.388;2022-10-18T04:48:16;14.10;99.90
19330;DHT22;9799;48.214;16.388;2022-10-18T04:51:38;14.10;99.90
19330;DHT22;9799;48.214;16.388;2022-10-18T04:55:00;14.00;99.90
19330;DHT22;9799;48.214;16.388;2022-10-18T04:58:21;14.00;99.90
19330;DHT22;9799;48.214;16.388;2022-10-18T05:01:42;14.10;99.90
19330;DHT22;9799;48.214;16.388;2022-10-18T05:05:05;13.80;99.90
19330;DHT22;9799;48.214;16.388;2022-10-18T05:08:26;13.80;99.90
19330;DHT22;9799;48.214;16.388;2022-10-18T05:11:49;13.90;99.90
19330;DHT22;9799;48.214;16.388;2022-10-18T05:15:10;13.90;99.90
19330;DHT22;9799;48.214;16.388;2022-10-18T05:18:31;13.90;99.90
19330;DHT22;9799;48.214;16.388;2022-10-18T05:21:52;13.80;99.90
19330;DHT22;9799;48.214;16.388;2022-10-18T05:25:14;13.90;99.90
19330;DHT22;9799;48.214;16.388;2022-10-18T05:28:36;13.70;99.90
19330;DHT22;9799;48.214;16.388;2022-10-18T05:31:57;13.70;99.90
19330;DHT22;9799;48.214;16.388;2022-10-18T05:35:18;13.80;99.90
19330;DHT22;9799;48.214;16.388;2022-10-18T05:38:40;13.80;99.90
19330;DHT22;9799;48.214;16.388;2022-10-18T05:42:02;13.70;99.90
19330;DHT22;9799;48.214;16.388;2022-10-18T05:45:24;13.60;99.90
19330;DHT22;9799;48.214;16.388;2022-10-18T05:48:49;13.70;99.90
19330;DHT22;9799;48.214;16.388;2022-10-18T05:52:10;13.70;99.90
19330;DHT22;9799;48.214;16.388;2022-10-18T05:55:31;13.60;99.90
19330;DHT22;9799;48.214;16.388;2022-10-18T05:58:53;13.70;99.90
19330;DHT22;9799;48.214;16.388;2022-10-18T06:02:15;13.70;99.90
19330;DHT22;9799;48.214;16.388;2022-10-18T06:05:36;13.80;99.90
19330;DHT22;9799;48.214;16.388;2022-10-18T06:08:58;13.70;99.90
19330;DHT22;9799;48.214;16.388;2022-10-18T06:12:19;13.70;99.90
19330;DHT22;9799;48.214;16.388;2022-10-18T06:15:40;13.80;99.90
19330;DHT22;9799;48.214;16.388;2022-10-18T06:19:03;13.70;99.90
19330;DHT22;9799;48.214;16.388;2022-10-18T06:22:24;13.70;99.90
19330;DHT22;9799;48.214;16.388;2022-10-18T06:25:45;13.60;99.90
19330;DHT22;9799;48.214;16.388;2022-10-18T06:29:06;13.70;99.90
19330;DHT22;9799;48.214;16.388;2022-10-18T06:32:27;13.80;99.90
19330;DHT22;9799;48.214;16.388;2022-10-18T06:35:58;13.80;99.90
19330;DHT22;9799;48.214;16.388;2022-10-18T06:39:20;13.70;99.90
19330;DHT22;9799;48.214;16.388;2022-10-18T06:42:41;13.70;99.90
19330;DHT22;9799;48.214;16.388;2022-10-18T06:46:03;13.80;99.90
19330;DHT22;9799;48.214;16.388;2022-10-18T06:49:26;13.80;99.90
19330;DHT22;9799;48.214;16.388;2022-10-18T06:52:51;13.80;99.90
19330;DHT22;9799;48.214;16.388;2022-10-18T06:56:12;13.90;99.90
19330;DHT22;9799;48.214;16.388;2022-10-18T06:59:34;13.80;99.90
19330;DHT22;9799;48.214;16.388;2022-10-18T07:02:55;13.80;99.90
19330;DHT22;9799;48.214;16.388;2022-10-18T07:06:18;13.90;99.90
19330;DHT22;9799;48.214;16.388;2022-10-18T07:09:40;14.10;99.90
19330;DHT22;9799;48.214;16.388;2022-10-18T07:13:02;14.20;99.90
19330;DHT22;9799;48.214;16.388;2022-10-18T07:16:23;14.20;99.90
19330;DHT22;9799;48.214;16.388;2022-10-18T07:19:44;14.30;99.90
19330;DHT22;9799;48.214;16.388;2022-10-18T07:23:06;14.40;99.90
19330;DHT22;9799;48.214;16.388;2022-10-18T07:26:31;14.50;99.90
19330;DHT22;9799;48.214;16.388;2022-10-18T07:29:53;14.60;99.90
19330;DHT22;9799;48.214;16.388;2022-10-18T07:33:14;14.70;99.90
19330;DHT22;9799;48.214;16.388;2022-10-18T07:36:35;14.60;99.90
19330;DHT22;9799;48.214;16.388;2022-10-18T07:39:56;14.60;99.90
19330;DHT22;9799;48.214;16.388;2022-10-18T07:43:19;14.70;99.90
19330;DHT22;9799;48.214;16.388;2022-10-18T07:46:40;14.60;99.90
19330;DHT22;9799;48.214;16.388;2022-10-18T07:50:01;14.60;99.90
19330;DHT22;9799;48.214;16.388;2022-10-18T07:53:22;14.60;99.90
19330;DHT22;9799;48.214;16.388;2022-10-18T07:56:43;14.60;99.90
19330;DHT22;9799;48.214;16.388;2022-10-18T08:00:07;14.60;99.90
19330;DHT22;9799;48.214;16.388;2022-10-18T08:03:29;14.90;99.90
19330;DHT22;9799;48.214;16.388;2022-10-18T08:06:50;15.00;99.90
19330;DHT22;9799;48.214;16.388;2022-10-18T08:10:11;14.80;99.90
19330;DHT22;9799;48.214;16.388;2022-10-18T08:13:32;14.70;99.90
19330;DHT22;9799;48.214;16.388;2022-10-18T08:16:56;14.80;99.90
19330;DHT22;9799;48.214;16.388;2022-10-18T08:20:17;15.00;99.90
19330;DHT22;9799;48.214;16.388;2022-10-18T08:23:38;15.00;99.90
19330;DHT22;9799;48.214;16.388;2022-10-18T08:26:59;15.10;99.90
19330;DHT22;9799;48.214;16.388;2022-10-18T08:30:22;15.20;99.90
19330;DHT22;9799;48.214;16.388;2022-10-18T08:33:44;15.30;99.90
19330;DHT22;9799;48.214;16.388;2022-10-18T08:37:06;15.40;99.90
19330;DHT22;9799;48.214;16.388;2022-10-18T08:40:27;15.60;99.90
19330;DHT22;9799;48.214;16.388;2022-10-18T08:43:55;15.60;99.90
19330;DHT22;9799;48.214;16.388;2022-10-18T08:47:20;15.60;99.90
19330;DHT22;9799;48.214;16.388;2022-10-18T08:50:45;15.70;99.90
19330;DHT22;9799;48.214;16.388;2022-10-18T08:54:10;15.70;99.90
19330;DHT22;9799;48.214;16.388;2022-10-18T08:57:32;15.80;99.90
19330;DHT22;9799;48.214;16.388;2022-10-18T09:01:01;15.90;99.90
19330;DHT22;9799;48.214;16.388;2022-10-18T09:04:38;15.80;99.90
19330;DHT22;9799;48.214;16.388;2022-10-18T09:08:16;15.90;99.90
19330;DHT22;9799;48.214;16.388;2022-10-18T09:11:49;16.00;99.90
19330;DHT22;9799;48.214;16.388;2022-10-18T09:15:19;16.10;99.90
19330;DHT22;9799;48.214;16.388;2022-10-18T09:18:53;15.90;99.90
19330;DHT22;9799;48.214;16.388;2022-10-18T09:22:18;16.10;99.90
19330;DHT22;9799;48.214;16.388;2022-10-18T09:25:44;16.10;99.90
19330;DHT22;9799;48.214;16.388;2022-10-18T09:29:19;16.20;99.90
19330;DHT22;9799;48.214;16.388;2022-10-18T09:32:48;16.40;99.90
19330;DHT22;9799;48.214;16.388;2022-10-18T09:36:16;16.30;99.90
19330;DHT22;9799;48.214;16.388;2022-10-18T09:39:40;16.40;99.90
19330;DHT22;9799;48.214;16.388;2022-10-18T09:43:07;16.40;99.90
19330;DHT22;9799;48.214;16.388;2022-10-18T09:46:33;16.60;99.90
19330;DHT22;9799;48.214;16.388;2022-10-18T09:49:59;16.70;99.90
19330;DHT22;9799;48.214;16.388;2022-10-18T09:53:27;16.70;99.90
19330;DHT22;9799;48.214;16.388;2022-10-18T09:56:56;16.80;99.90
19330;DHT22;9799;48.214;16.388;2022-10-18T10:00:24;16.80;99.90
19330;DHT22;9799;48.214;16.388;2022-10-18T10:03:46;16.90;99.90
19330;DHT22;9799;48.214;16.388;2022-10-18T10:07:11;17.00;99.90
19330;DHT22;9799;48.214;16.388;2022-10-18T10:10:33;17.10;99.90
19330;DHT22;9799;48.214;16.388;2022-10-18T10:13:57;17.10;99.90
19330;DHT22;9799;48.214;16.388;2022-10-18T10:17:23;17.10;99.90
19330;DHT22;9799;48.214;16.388;2022-10-18T10:20:46;17.10;99.90
19330;DHT22;9799;48.214;16.388;2022-10-18T10:24:17;17.20;99.90
19330;DHT22;9799;48.214;16.388;2022-10-18T10:27:43;17.20;99.90
19330;DHT22;9799;48.214;16.388;2022-10-18T10:31:17;17.30;99.90
19330;DHT22;9799;48.214;16.388;2022-10-18T10:34:39;17.40;99.90
19330;DHT22;9799;48.214;16.388;2022-10-18T10:38:01;17.40;99.90
19330;DHT22;9799;48.214;16.388;2022-10-18T10:41:23;17.50;99.90
19330;DHT22;9799;48.214;16.388;2022-10-18T10:44:52;17.60;99.90
19330;DHT22;9799;48.214;16.388;2022-10-18T10:48:15;17.60;99.90
19330;DHT22;9799;48.214;16.388;2022-10-18T10:51:40;17.50;99.90
19330;DHT22;9799;48.214;16.388;2022-10-18T10:55:02;17.50;99.90
19330;DHT22;9799;48.214;16.388;2022-10-18T10:58:26;17.60;99.90
19330;DHT22;9799;48.214;16.388;2022-10-18T11:01:47;17.70;99.90
19330;DHT22;9799;48.214;16.388;2022-10-18T11:05:22;17.80;99.90
19330;DHT22;9799;48.214;16.388;2022-10-18T11:08:45;18.00;99.90
19330;DHT22;9799;48.214;16.388;2022-10-18T11:12:24;18.00;99.90
19330;DHT22;9799;48.214;16.388;2022-10-18T11:15:51;18.00;99.90
19330;DHT22;9799;48.214;16.388;2022-10-18T11:19:24;18.00;99.90
19330;DHT22;9799;48.214;16.388;2022-10-18T11:23:00;18.00;99.90
19330;DHT22;9799;48.214;16.388;2022-10-18T11:26:37;18.20;99.90
19330;DHT22;9799;48.214;16.388;2022-10-18T11:30:20;18.20;99.90
19330;DHT22;9799;48.214;16.388;2022-10-18T11:33:53;18.30;99.90
19330;DHT22;9799;48.214;16.388;2022-10-18T11:37:31;18.30;99.90
19330;DHT22;9799;48.214;16.388;2022-10-18T11:41:08;18.40;99.90
19330;DHT22;9799;48.214;16.388;2022-10-18T11:44:38;18.40;99.90
19330;DHT22;9799;48.214;16.388;2022-10-18T11:48:07;18.40;99.90
19330;DHT22;9799;48.214;16.388;2022-10-18T11:51:43;18.30;99.90
19330;DHT22;9799;48.214;16.388;2022-10-18T11:55:32;18.40;99.90
19330;DHT22;9799;48.214;16.388;2022-10-18T11:59:14;18.40;99.90
19330;DHT22;9799;48.214;16.388;2022-10-18T12:02:59;18.40;99.90
19330;DHT22;9799;48.214;16.388;2022-10-18T12:06:26;18.50;99.90
19330;DHT22;9799;48.214;16.388;2022-10-18T12:09:51;18.50;99.90
19330;DHT22;9799;48.214;16.388;2022-10-18T12:13:17;18.50;99.90
19330;DHT22;9799;48.214;16.388;2022-10-18T12:16:42;18.70;99.90
19330;DHT22;9799;48.214;16.388;2022-10-18T12:20:11;18.60;99.90
19330;DHT22;9799;48.214;16.388;2022-10-18T12:23:40;18.60;99.90
19330;DHT22;9799;48.214;16.388;2022-10-18T12:27:02;18.70;99.90
19330;DHT22;9799;48.214;16.388;2022-10-18T12:30:38;18.80;99.90
19330;DHT22;9799;48.214;16.388;2022-10-18T12:34:07;18.70;99.90
19330;DHT22;9799;48.214;16.388;2022-10-18T12:37:56;18.70;99.90
19330;DHT22;9799;48.214;16.388;2022-10-18T12:41:25;18.70;99.90
19330;DHT22;9799;48.214;16.388;2022-10-18T12:44:47;18.70;99.90
19330;DHT22;9799;48.214;16.388;2022-10-18T12:48:27;18.90;99.90
19330;DHT22;9799;48.214;16.388;2022-10-18T12:51:51;19.00;99.90
19330;DHT22;9799;48.214;16.388;2022-10-18T12:55:29;18.90;99.90
19330;DHT22;9799;48.214;16.388;2022-10-18T12:58:51;18.90;99.90
19330;DHT22;9799;48.214;16.388;2022-10-18T13:02:33;18.90;99.90
19330;DHT22;9799;48.214;16.388;2022-10-18T13:05:56;18.80;99.90
19330;DHT22;9799;48.214;16.388;2022-10-18T13:09:20;18.90;99.90
19330;DHT22;9799;48.214;16.388;2022-10-18T13:12:57;18.90;99.90
19330;DHT22;9799;48.214;16.388;2022-10-18T13:16:34;18.90;99.90
19330;DHT22;9799;48.214;16.388;2022-10-18T13:20:08;19.00;99.90
19330;DHT22;9799;48.214;16.388;2022-10-18T13:23:38;19.00;99.90
19330;DHT22;9799;48.214;16.388;2022-10-18T13:27:18;19.00;99.90
19330;DHT22;9799;48.214;16.388;2022-10-18T13:30:49;19.10;99.90
19330;DHT22;9799;48.214;16.388;2022-10-18T13:34:21;19.00;99.90
19330;DHT22;9799;48.214;16.388;2022-10-18T13:37:56;19.00;99.90
19330;DHT22;9799;48.214;16.388;2022-10-18T13:41:19;18.90;99.90
19330;DHT22;9799;48.214;16.388;2022-10-18T13:44:41;18.90;99.90
19330;DHT22;9799;48.214;16.388;2022-10-18T13:52:07;19.10;99.90
19330;DHT22;9799;48.214;16.388;2022-10-18T13:55:45;19.00;99.90
19330;DHT22;9799;48.214;16.388;2022-10-18T14:03:28;19.10;99.90
19330;DHT22;9799;48.214;16.388;2022-10-18T14:06:57;19.00;99.90
19330;DHT22;9799;48.214;16.388;2022-10-18T14:10:23;19.00;99.90
19330;DHT22;9799;48.214;16.388;2022-10-18T14:13:47;19.00;99.90
19330;DHT22;9799;48.214;16.388;2022-10-18T14:17:16;19.00;99.90
19330;DHT22;9799;48.214;16.388;2022-10-18T14:20:44;19.00;99.90
19330;DHT22;9799;48.214;16.388;2022-10-18T14:24:14;19.00;99.90
19330;DHT22;9799;48.214;16.388;2022-10-18T14:27:39;19.00;99.90
19330;DHT22;9799;48.214;16.388;2022-10-18T14:31:01;19.00;99.90
19330;DHT22;9799;48.214;16.388;2022-10-18T14:34:25;18.90;99.90
19330;DHT22;9799;48.214;16.388;2022-10-18T14:37:47;18.90;99.90
19330;DHT22;9799;48.214;16.388;2022-10-18T14:41:19;18.90;99.90
19330;DHT22;9799;48.214;16.388;2022-10-18T14:44:47;19.00;99.90
19330;DHT22;9799;48.214;16.388;2022-10-18T14:48:14;19.00;99.90
19330;DHT22;9799;48.214;16.388;2022-10-18T14:51:37;19.00;99.90
19330;DHT22;9799;48.214;16.388;2022-10-18T14:54:59;19.10;99.90
19330;DHT22;9799;48.214;16.388;2022-10-18T14:58:22;19.00;99.90
19330;DHT22;9799;48.214;16.388;2022-10-18T15:01:53;18.90;99.90
19330;DHT22;9799;48.214;16.388;2022-10-18T15:05:19;18.90;99.90
19330;DHT22;9799;48.214;16.388;2022-10-18T15:08:41;18.90;99.90
19330;DHT22;9799;48.214;16.388;2022-10-18T15:12:04;18.80;99.90
19330;DHT22;9799;48.214;16.388;2022-10-18T15:15:28;18.80;99.90
19330;DHT22;9799;48.214;16.388;2022-10-18T15:19:02;18.80;99.90
19330;DHT22;9799;48.214;16.388;2022-10-18T15:22:25;18.70;99.90
19330;DHT22;9799;48.214;16.388;2022-10-18T15:25:46;18.70;99.90
19330;DHT22;9799;48.214;16.388;2022-10-18T15:29:15;18.70;99.90
19330;DHT22;9799;48.214;16.388;2022-10-18T15:32:37;18.70;99.90
19330;DHT22;9799;48.214;16.388;2022-10-18T15:36:26;18.70;99.90
19330;DHT22;9799;48.214;16.388;2022-10-18T15:44:05;18.50;99.90
19330;DHT22;9799;48.214;16.388;2022-10-18T15:47:26;18.50;99.90
19330;DHT22;9799;48.214;16.388;2022-10-18T15:50:48;18.40;99.90
19330;DHT22;9799;48.214;16.388;2022-10-18T15:54:16;18.40;99.90
19330;DHT22;9799;48.214;16.388;2022-10-18T15:57:38;18.40;99.90
19330;DHT22;9799;48.214;16.388;2022-10-18T16:01:00;18.40;99.90
19330;DHT22;9799;48.214;16.388;2022-10-18T16:04:25;18.40;99.90
19330;DHT22;9799;48.214;16.388;2022-10-18T16:07:50;18.30;99.90
19330;DHT22;9799;48.214;16.388;2022-10-18T16:11:15;18.30;99.90
19330;DHT22;9799;48.214;16.388;2022-10-18T16:14:36;18.20;99.90
19330;DHT22;9799;48.214;16.388;2022-10-18T16:17:57;18.20;99.90
19330;DHT22;9799;48.214;16.388;2022-10-18T16:21:20;18.10;99.90
19330;DHT22;9799;48.214;16.388;2022-10-18T16:24:42;18.10;99.90
19330;DHT22;9799;48.214;16.388;2022-10-18T16:28:04;18.10;99.90
19330;DHT22;9799;48.214;16.388;2022-10-18T16:31:27;18.00;99.90
19330;DHT22;9799;48.214;16.388;2022-10-18T16:34:48;18.00;99.90
19330;DHT22;9799;48.214;16.388;2022-10-18T16:38:26;18.00;99.90
19330;DHT22;9799;48.214;16.388;2022-10-18T16:41:47;18.00;99.90
19330;DHT22;9799;48.214;16.388;2022-10-18T16:45:11;17.90;99.90
19330;DHT22;9799;48.214;16.388;2022-10-18T16:48:32;17.90;99.90
19330;DHT22;9799;48.214;16.388;2022-10-18T16:51:54;17.90;99.90
19330;DHT22;9799;48.214;16.388;2022-10-18T16:55:15;17.90;99.90
19330;DHT22;9799;48.214;16.388;2022-10-18T16:58:41;17.90;99.90
19330;DHT22;9799;48.214;16.388;2022-10-18T17:02:03;17.90;99.90
19330;DHT22;9799;48.214;16.388;2022-10-18T17:05:28;17.80;99.90
19330;DHT22;9799;48.214;16.388;2022-10-18T17:08:50;17.80;99.90
19330;DHT22;9799;48.214;16.388;2022-10-18T17:12:12;17.80;99.90
19330;DHT22;9799;48.214;16.388;2022-10-18T17:15:33;17.80;99.90
19330;DHT22;9799;48.214;16.388;2022-10-18T17:18:58;17.80;99.90
19330;DHT22;9799;48.214;16.388;2022-10-18T17:22:20;17.80;99.90
19330;DHT22;9799;48.214;16.388;2022-10-18T17:25:42;17.80;99.90
19330;DHT22;9799;48.214;16.388;2022-10-18T17:29:06;17.80;99.90
19330;DHT22;9799;48.214;16.388;2022-10-18T17:32:29;17.80;99.90
19330;DHT22;9799;48.214;16.388;2022-10-18T17:35:53;17.80;99.90
19330;DHT22;9799;48.214;16.388;2022-10-18T17:39:16;17.70;99.90
19330;DHT22;9799;48.214;16.388;2022-10-18T17:42:37;17.70;99.90
19330;DHT22;9799;48.214;16.388;2022-10-18T17:45:59;17.70;99.90
19330;DHT22;9799;48.214;16.388;2022-10-18T17:49:21;17.60;99.90
19330;DHT22;9799;48.214;16.388;2022-10-18T17:52:45;17.60;99.90
19330;DHT22;9799;48.214;16.388;2022-10-18T17:56:09;17.60;99.90
19330;DHT22;9799;48.214;16.388;2022-10-18T17:59:31;17.60;99.90
19330;DHT22;9799;48.214;16.388;2022-10-18T18:02:56;17.60;99.90
19330;DHT22;9799;48.214;16.388;2022-10-18T18:06:20;17.60;99.90
19330;DHT22;9799;48.214;16.388;2022-10-18T18:09:44;17.50;99.90
19330;DHT22;9799;48.214;16.388;2022-10-18T18:13:06;17.50;99.90
19330;DHT22;9799;48.214;16.388;2022-10-18T18:16:28;17.50;99.90
19330;DHT22;9799;48.214;16.388;2022-10-18T18:19:52;17.50;99.90
19330;DHT22;9799;48.214;16.388;2022-10-18T18:23:14;17.40;99.90
19330;DHT22;9799;48.214;16.388;2022-10-18T18:26:40;17.40;99.90
19330;DHT22;9799;48.214;16.388;2022-10-18T18:30:04;17.40;99.90
19330;DHT22;9799;48.214;16.388;2022-10-18T18:33:26;17.40;99.90
19330;DHT22;9799;48.214;16.388;2022-10-18T18:36:48;17.30;99.90
19330;DHT22;9799;48.214;16.388;2022-10-18T18:40:11;17.30;99.90
19330;DHT22;9799;48.214;16.388;2022-10-18T18:43:35;17.30;99.90
19330;DHT22;9799;48.214;16.388;2022-10-18T18:46:57;17.30;99.90
19330;DHT22;9799;48.214;16.388;2022-10-18T18:50:19;17.30;99.90
19330;DHT22;9799;48.214;16.388;2022-10-18T18:53:42;17.30;99.90
19330;DHT22;9799;48.214;16.388;2022-10-18T18:57:04;17.30;99.90
19330;DHT22;9799;48.214;16.388;2022-10-18T19:00:28;17.30;99.90
19330;DHT22;9799;48.214;16.388;2022-10-18T19:03:51;17.30;99.90
19330;DHT22;9799;48.214;16.388;2022-10-18T19:07:14;17.20;99.90
19330;DHT22;9799;48.214;16.388;2022-10-18T19:10:35;17.20;99.90
19330;DHT22;9799;48.214;16.388;2022-10-18T19:14:01;17.20;99.90
19330;DHT22;9799;48.214;16.388;2022-10-18T19:17:25;17.20;99.90
19330;DHT22;9799;48.214;16.388;2022-10-18T19:20:47;17.10;99.90
19330;DHT22;9799;48.214;16.388;2022-10-18T19:24:10;17.10;99.90
19330;DHT22;9799;48.214;16.388;2022-10-18T19:27:33;17.10;99.90
19330;DHT22;9799;48.214;16.388;2022-10-18T19:30:55;17.10;99.90
19330;DHT22;9799;48.214;16.388;2022-10-18T19:34:21;17.10;99.90
19330;DHT22;9799;48.214;16.388;2022-10-18T19:37:44;17.00;99.90
19330;DHT22;9799;48.214;16.388;2022-10-18T19:41:07;17.00;99.90
19330;DHT22;9799;48.214;16.388;2022-10-18T19:44:31;17.00;99.90
19330;DHT22;9799;48.214;16.388;2022-10-18T19:47:54;17.00;99.90
19330;DHT22;9799;48.214;16.388;2022-10-18T19:51:17;17.00;99.90
19330;DHT22;9799;48.214;16.388;2022-10-18T19:54:39;17.10;99.90
19330;DHT22;9799;48.214;16.388;2022-10-18T19:58:01;17.00;99.90
19330;DHT22;9799;48.214;16.388;2022-10-18T20:01:25;17.00;99.90
19330;DHT22;9799;48.214;16.388;2022-10-18T20:04:47;17.00;99.90
19330;DHT22;9799;48.214;16.388;2022-10-18T20:08:11;17.00;99.90
19330;DHT22;9799;48.214;16.388;2022-10-18T20:11:32;17.00;99.90
19330;DHT22;9799;48.214;16.388;2022-10-18T20:14:53;17.00;99.90
19330;DHT22;9799;48.214;16.388;2022-10-18T20:18:15;17.00;99.90
19330;DHT22;9799;48.214;16.388;2022-10-18T20:21:37;17.10;99.90
19330;DHT22;9799;48.214;16.388;2022-10-18T20:25:00;17.40;99.90
19330;DHT22;9799;48.214;16.388;2022-10-18T20:28:22;17.60;99.90
19330;DHT22;9799;48.214;16.388;2022-10-18T20:31:44;17.80;99.90
19330;DHT22;9799;48.214;16.388;2022-10-18T20:35:07;17.80;99.90
19330;DHT22;9799;48.214;16.388;2022-10-18T20:38:30;17.80;99.90
19330;DHT22;9799;48.214;16.388;2022-10-18T20:41:52;17.80;99.90
19330;DHT22;9799;48.214;16.388;2022-10-18T20:45:13;17.80;99.90
19330;DHT22;9799;48.214;16.388;2022-10-18T20:48:35;17.70;99.90
19330;DHT22;9799;48.214;16.388;2022-10-18T20:51:57;17.80;99.90
19330;DHT22;9799;48.214;16.388;2022-10-18T20:55:18;17.80;99.90
19330;DHT22;9799;48.214;16.388;2022-10-18T20:58:42;17.90;99.90
19330;DHT22;9799;48.214;16.388;2022-10-18T21:02:04;17.90;99.90
19330;DHT22;9799;48.214;16.388;2022-10-18T21:05:25;17.80;99.90
19330;DHT22;9799;48.214;16.388;2022-10-18T21:08:46;17.80;99.90
19330;DHT22;9799;48.214;16.388;2022-10-18T21:12:07;17.80;99.90
19330;DHT22;9799;48.214;16.388;2022-10-18T21:15:30;17.80;99.90
19330;DHT22;9799;48.214;16.388;2022-10-18T21:18:51;17.80;99.90
19330;DHT22;9799;48.214;16.388;2022-10-18T21:22:12;17.80;99.90
19330;DHT22;9799;48.214;16.388;2022-10-18T21:25:33;17.90;99.90
19330;DHT22;9799;48.214;16.388;2022-10-18T21:28:56;17.80;99.90
19330;DHT22;9799;48.214;16.388;2022-10-18T21:32:19;17.80;99.90
19330;DHT22;9799;48.214;16.388;2022-10-18T21:35:40;17.70;99.90
19330;DHT22;9799;48.214;16.388;2022-10-18T21:39:02;17.70;99.90
19330;DHT22;9799;48.214;16.388;2022-10-18T21:42:23;17.70;99.90
19330;DHT22;9799;48.214;16.388;2022-10-18T21:45:44;17.70;99.90